Newburg, Maryland
Current Conditions -  °F | °C
As of 5:06 AM on Tuesday 21 Oct 2014 (Local Time) from K2W6 Reporting Station
Overcast Overcast  
Wind Chill: 57°   Ceiling: 10000
Heat Index: 57°   Visibility: 10mi
Dew Point: 46°   Wind: 3mph
Humidity: 67%   Direction: 220°SW
Pressure: 29.88"   Gusts: NA
Location:  38.26°N, 76.85°W
Report Text: K2W6 210906Z AUTO 22003KT 10SM OVC100 14/08 A2988 RMK AO1
Loading
Personal Weather Stations






























Interactive Weather Map
Tropical Storm Tracking
New forecast layout! Learn more

10-Day Weather Forecast

Advertisements
Track Severe Weather on mobile